createdAt,value
2019-01-29T00:00:13.700Z,989.64
2019-01-29T00:01:13.698Z,989.66
2019-01-29T00:02:13.747Z,989.72
2019-01-29T00:03:13.729Z,989.72
2019-01-29T00:04:13.659Z,989.70
2019-01-29T00:05:13.647Z,989.70
2019-01-29T00:06:13.646Z,989.74
2019-01-29T00:07:13.635Z,989.77
2019-01-29T00:08:13.618Z,989.74
2019-01-29T00:09:13.602Z,989.74
2019-01-29T00:10:13.601Z,989.85
2019-01-29T00:11:13.579Z,989.79
2019-01-29T00:12:13.575Z,989.84
2019-01-29T00:13:13.569Z,989.85
2019-01-29T00:14:13.545Z,989.80
2019-01-29T00:15:13.537Z,989.83
2019-01-29T00:16:13.534Z,989.88
2019-01-29T00:17:13.512Z,989.83
2019-01-29T00:18:13.507Z,989.91
2019-01-29T00:19:13.512Z,989.94
2019-01-29T00:20:13.482Z,989.99
2019-01-29T00:21:13.494Z,989.95
2019-01-29T00:22:13.464Z,989.96
2019-01-29T00:23:13.503Z,990.02
2019-01-29T00:24:13.449Z,989.97
2019-01-29T00:25:13.431Z,990.01
2019-01-29T00:26:13.411Z,990.05
2019-01-29T00:27:13.407Z,989.98
2019-01-29T00:28:13.399Z,990.06
2019-01-29T00:29:13.389Z,990.01
2019-01-29T00:30:13.387Z,990.06
2019-01-29T00:31:13.360Z,990.00
2019-01-29T00:32:13.347Z,990.08
2019-01-29T00:33:13.342Z,990.10
2019-01-29T00:34:13.327Z,990.09
2019-01-29T00:35:13.323Z,990.09
2019-01-29T00:36:13.326Z,990.09
2019-01-29T00:37:13.301Z,990.19
2019-01-29T00:38:13.281Z,990.21
2019-01-29T00:39:13.286Z,990.18
2019-01-29T00:40:13.264Z,990.21
2019-01-29T00:41:13.256Z,990.23
2019-01-29T00:42:13.242Z,990.29
2019-01-29T00:43:13.240Z,990.29
2019-01-29T00:44:13.236Z,990.33
2019-01-29T00:45:13.232Z,990.31
2019-01-29T00:46:13.204Z,990.30
2019-01-29T00:47:13.199Z,990.36
2019-01-29T00:48:13.174Z,990.34
2019-01-29T00:49:13.154Z,990.41
2019-01-29T00:50:13.147Z,990.39
2019-01-29T00:51:13.141Z,990.33
2019-01-29T00:52:13.128Z,990.41
2019-01-29T00:53:13.115Z,990.41
2019-01-29T00:54:13.173Z,990.40
2019-01-29T00:55:13.098Z,990.47
2019-01-29T00:56:13.088Z,990.43
2019-01-29T00:57:13.071Z,990.50
2019-01-29T00:58:13.067Z,990.56
2019-01-29T00:59:13.117Z,990.57
2019-01-29T01:00:13.040Z,990.58
2019-01-29T01:01:13.025Z,990.60
2019-01-29T01:02:13.102Z,990.66
2019-01-29T01:03:13.027Z,990.60
2019-01-29T01:04:13.013Z,990.65
2019-01-29T01:05:12.992Z,990.64
2019-01-29T01:06:12.981Z,990.62
2019-01-29T01:07:12.966Z,990.69
2019-01-29T01:08:12.970Z,990.72
2019-01-29T01:09:12.972Z,990.74
2019-01-29T01:10:12.944Z,990.70
2019-01-29T01:11:12.993Z,990.71
2019-01-29T01:12:12.909Z,990.79
2019-01-29T01:13:12.907Z,990.77
2019-01-29T01:14:12.910Z,990.78
2019-01-29T01:15:12.889Z,990.82
2019-01-29T01:16:12.887Z,990.77
2019-01-29T01:17:12.859Z,990.75
2019-01-29T01:18:12.878Z,990.79
2019-01-29T01:19:12.858Z,990.83
2019-01-29T01:20:12.834Z,990.88
2019-01-29T01:21:12.835Z,990.85
2019-01-29T01:22:12.809Z,990.91
2019-01-29T01:23:12.801Z,990.90
2019-01-29T01:24:12.784Z,990.89
2019-01-29T01:25:12.786Z,990.95
2019-01-29T01:26:12.772Z,990.92
2019-01-29T01:27:12.834Z,990.97
2019-01-29T01:28:12.762Z,990.95
2019-01-29T01:29:12.730Z,990.95
2019-01-29T01:30:12.715Z,991.09
2019-01-29T01:31:12.717Z,991.06
2019-01-29T01:32:12.698Z,991.13
2019-01-29T01:33:12.690Z,991.08
2019-01-29T01:34:12.663Z,991.19
2019-01-29T01:35:12.660Z,991.14
2019-01-29T01:36:12.643Z,991.10
2019-01-29T01:37:12.640Z,991.10
2019-01-29T01:38:12.630Z,991.16
2019-01-29T01:39:12.622Z,991.22
2019-01-29T01:40:12.603Z,991.16
2019-01-29T01:41:12.589Z,991.17
2019-01-29T01:42:12.581Z,991.20
2019-01-29T01:43:12.581Z,991.23
2019-01-29T01:44:12.560Z,991.19
2019-01-29T01:45:12.550Z,991.26
2019-01-29T01:46:12.537Z,991.24
2019-01-29T01:47:12.535Z,991.22
2019-01-29T01:48:12.523Z,991.25
2019-01-29T01:49:12.527Z,991.30
2019-01-29T01:50:12.506Z,991.23
2019-01-29T01:51:12.484Z,991.38
2019-01-29T01:52:12.475Z,991.30
2019-01-29T01:53:12.475Z,991.39
2019-01-29T01:54:12.462Z,991.37
2019-01-29T01:55:12.468Z,991.35
2019-01-29T01:56:12.445Z,991.35
2019-01-29T01:57:12.419Z,991.38
2019-01-29T01:58:12.416Z,991.49
2019-01-29T01:59:12.403Z,991.40
2019-01-29T02:00:12.398Z,991.43
2019-01-29T02:01:12.389Z,991.40
2019-01-29T02:02:12.404Z,991.48
2019-01-29T02:03:12.361Z,991.54
2019-01-29T02:04:12.346Z,991.54
2019-01-29T02:05:12.335Z,991.64
2019-01-29T02:06:12.322Z,991.64
2019-01-29T02:07:12.344Z,991.63
2019-01-29T02:08:12.298Z,991.67
2019-01-29T02:09:12.297Z,991.68
2019-01-29T02:10:12.278Z,991.72
2019-01-29T02:11:12.261Z,991.69
2019-01-29T02:12:12.268Z,991.73
2019-01-29T02:13:12.265Z,991.73
2019-01-29T02:14:12.243Z,991.72
2019-01-29T02:15:12.222Z,991.75
2019-01-29T02:16:12.215Z,991.73
2019-01-29T02:17:12.210Z,991.82
2019-01-29T02:18:12.196Z,991.83
2019-01-29T02:19:12.186Z,991.79
2019-01-29T02:20:12.171Z,991.88
2019-01-29T02:21:12.176Z,991.85
2019-01-29T02:22:12.150Z,991.85
2019-01-29T02:23:12.139Z,991.93
2019-01-29T02:24:12.134Z,991.88
2019-01-29T02:25:12.109Z,991.92
2019-01-29T02:26:12.098Z,991.92
2019-01-29T02:27:12.092Z,991.93
2019-01-29T02:28:12.086Z,991.89
2019-01-29T02:29:12.066Z,991.98
2019-01-29T02:30:12.098Z,992.02
2019-01-29T02:31:12.046Z,992.01
2019-01-29T02:32:12.042Z,992.18
2019-01-29T02:33:12.025Z,992.10
2019-01-29T02:34:12.012Z,992.07
2019-01-29T02:35:12.010Z,992.11
2019-01-29T02:36:12.001Z,992.06
2019-01-29T02:37:11.989Z,992.09
2019-01-29T02:38:11.971Z,992.22
2019-01-29T02:39:11.970Z,992.26
2019-01-29T02:40:11.959Z,992.20
2019-01-29T02:41:11.946Z,992.27
2019-01-29T02:42:11.951Z,992.14
2019-01-29T02:43:11.915Z,992.31
2019-01-29T02:44:11.913Z,992.26
2019-01-29T02:45:11.895Z,992.25
2019-01-29T02:46:11.889Z,992.39
2019-01-29T02:47:20.507Z,992.31
2019-01-29T02:48:42.477Z,992.36
2019-01-29T02:49:49.590Z,992.26
2019-01-29T02:51:24.114Z,992.39
2019-01-29T02:52:31.233Z,992.38
2019-01-29T02:54:06.350Z,992.43
2019-01-29T02:55:13.663Z,992.44
2019-01-29T02:56:47.634Z,992.55
2019-01-29T02:57:47.594Z,992.49
2019-01-29T02:58:47.602Z,992.54
2019-01-29T02:59:47.579Z,992.58
2019-01-29T03:00:47.572Z,992.60
2019-01-29T03:01:47.558Z,992.62
2019-01-29T03:02:55.721Z,992.58
2019-01-29T03:04:29.214Z,992.68
2019-01-29T03:05:29.179Z,992.72
2019-01-29T03:06:29.180Z,992.70
2019-01-29T03:07:29.158Z,992.73
2019-01-29T03:08:29.144Z,992.74
2019-01-29T03:09:29.134Z,992.74
2019-01-29T03:10:29.130Z,992.73
2019-01-29T03:11:29.153Z,992.75
2019-01-29T03:12:29.111Z,992.85
2019-01-29T03:13:29.092Z,992.86
2019-01-29T03:14:29.083Z,992.83
2019-01-29T03:15:29.124Z,992.86
2019-01-29T03:16:29.061Z,992.92
2019-01-29T03:17:29.063Z,992.92
2019-01-29T03:18:29.043Z,992.92
2019-01-29T03:19:29.032Z,992.93
2019-01-29T03:20:29.048Z,992.95
2019-01-29T03:21:31.481Z,992.96
2019-01-29T03:22:29.008Z,992.98
2019-01-29T03:23:28.983Z,993.03
2019-01-29T03:24:28.974Z,993.05
2019-01-29T03:25:28.975Z,993.11
2019-01-29T03:26:28.959Z,993.05
2019-01-29T03:27:28.944Z,993.07
2019-01-29T03:28:28.933Z,993.09
2019-01-29T03:29:28.931Z,993.16
2019-01-29T03:30:28.909Z,993.17
2019-01-29T03:31:28.904Z,993.16
2019-01-29T03:32:28.888Z,993.17
2019-01-29T03:33:28.913Z,993.18
2019-01-29T03:34:28.861Z,993.17
2019-01-29T03:35:28.854Z,993.26
2019-01-29T03:36:28.843Z,993.27
2019-01-29T03:37:28.834Z,993.25
2019-01-29T03:38:28.819Z,993.20
2019-01-29T03:39:28.819Z,993.35
2019-01-29T03:40:28.848Z,993.38
2019-01-29T03:41:28.786Z,993.38
2019-01-29T03:42:28.775Z,993.44
2019-01-29T03:43:28.783Z,993.43
2019-01-29T03:44:28.754Z,993.39
2019-01-29T03:45:28.749Z,993.46
2019-01-29T03:46:28.729Z,993.48
2019-01-29T03:47:28.722Z,993.43
2019-01-29T03:48:28.710Z,993.51
2019-01-29T03:49:28.706Z,993.54
2019-01-29T03:50:29.185Z,993.56
2019-01-29T03:51:28.674Z,993.54
2019-01-29T03:52:28.671Z,993.54
2019-01-29T03:53:37.797Z,993.68
2019-01-29T03:54:29.644Z,993.56
2019-01-29T03:55:28.661Z,993.58
2019-01-29T03:56:28.620Z,993.56
2019-01-29T03:57:28.612Z,993.60
2019-01-29T03:58:28.606Z,993.58
2019-01-29T03:59:28.594Z,993.58
2019-01-29T04:00:28.577Z,993.66
2019-01-29T04:01:28.576Z,993.61
2019-01-29T04:02:28.615Z,993.64
2019-01-29T04:03:28.589Z,993.64
2019-01-29T04:04:28.533Z,993.70
2019-01-29T04:05:28.525Z,993.68
2019-01-29T04:06:28.516Z,993.70
2019-01-29T04:07:28.507Z,993.72
2019-01-29T04:08:28.491Z,993.71
2019-01-29T04:09:28.485Z,993.83
2019-01-29T04:10:28.463Z,993.81
2019-01-29T04:11:28.463Z,993.79
2019-01-29T04:12:28.469Z,993.76
2019-01-29T04:13:28.440Z,993.74
2019-01-29T04:14:28.423Z,993.76
2019-01-29T04:15:28.429Z,993.76
2019-01-29T04:16:28.429Z,993.87
2019-01-29T04:17:28.409Z,993.84
2019-01-29T04:18:28.450Z,993.88
2019-01-29T04:19:28.385Z,993.81
2019-01-29T04:20:28.359Z,993.88
2019-01-29T04:21:28.348Z,993.90
2019-01-29T04:22:28.336Z,993.97
2019-01-29T04:23:28.339Z,993.97
2019-01-29T04:24:28.325Z,993.96
2019-01-29T04:25:28.302Z,993.96
2019-01-29T04:26:28.293Z,993.94
2019-01-29T04:27:28.286Z,993.99
2019-01-29T04:28:28.371Z,994.03
2019-01-29T04:29:28.257Z,994.07
2019-01-29T04:30:28.262Z,994.05
2019-01-29T04:31:28.258Z,994.08
2019-01-29T04:32:28.236Z,994.13
2019-01-29T04:33:28.232Z,994.15
2019-01-29T04:34:28.216Z,994.15
2019-01-29T04:35:28.208Z,994.17
2019-01-29T04:36:28.195Z,994.13
2019-01-29T04:37:28.177Z,994.19
2019-01-29T04:38:28.180Z,994.17
2019-01-29T04:39:28.158Z,994.26
2019-01-29T04:40:28.250Z,994.19
2019-01-29T04:41:28.136Z,994.20
2019-01-29T04:42:28.117Z,994.25
2019-01-29T04:43:28.158Z,994.28
2019-01-29T04:44:28.106Z,994.29
2019-01-29T04:45:28.093Z,994.32
2019-01-29T04:46:28.079Z,994.29
2019-01-29T04:47:28.082Z,994.32
2019-01-29T04:48:28.059Z,994.27
2019-01-29T04:49:28.046Z,994.35
2019-01-29T04:50:28.042Z,994.42
2019-01-29T04:51:28.032Z,994.36
2019-01-29T04:52:28.027Z,994.36
2019-01-29T04:53:28.017Z,994.36
2019-01-29T04:54:27.994Z,994.38
2019-01-29T04:55:27.983Z,994.45
2019-01-29T04:56:27.966Z,994.44
2019-01-29T04:57:27.969Z,994.50
2019-01-29T04:58:27.953Z,994.50
2019-01-29T04:59:27.944Z,994.41
2019-01-29T05:00:27.934Z,994.50
2019-01-29T05:01:27.929Z,994.54
2019-01-29T05:02:27.904Z,994.49
2019-01-29T05:03:27.891Z,994.59
2019-01-29T05:04:27.887Z,994.57
2019-01-29T05:05:27.895Z,994.56
2019-01-29T05:06:27.872Z,994.58
2019-01-29T05:07:27.867Z,994.57
2019-01-29T05:08:27.843Z,994.53
2019-01-29T05:09:27.890Z,994.66
2019-01-29T05:10:27.823Z,994.64
2019-01-29T05:11:27.805Z,994.62
2019-01-29T05:12:27.810Z,994.64
2019-01-29T05:13:27.788Z,994.65
2019-01-29T05:14:27.782Z,994.61
2019-01-29T05:15:27.803Z,994.69
2019-01-29T05:16:27.786Z,994.67
2019-01-29T05:17:27.746Z,994.67
2019-01-29T05:18:27.739Z,994.72
2019-01-29T05:19:27.721Z,994.73
2019-01-29T05:20:27.716Z,994.75
2019-01-29T05:21:27.700Z,994.70
2019-01-29T05:22:27.681Z,994.76
2019-01-29T05:23:27.670Z,994.81
2019-01-29T05:24:27.671Z,994.83
2019-01-29T05:25:27.659Z,994.79
2019-01-29T05:26:27.642Z,994.84
2019-01-29T05:27:27.644Z,994.89
2019-01-29T05:28:27.616Z,994.86
2019-01-29T05:29:27.613Z,994.91
2019-01-29T05:30:27.620Z,994.92
2019-01-29T05:31:27.583Z,994.95
2019-01-29T05:32:27.598Z,994.95
2019-01-29T05:33:27.566Z,994.94
2019-01-29T05:34:27.548Z,995.00
2019-01-29T05:35:27.538Z,994.95
2019-01-29T05:36:27.528Z,994.97
2019-01-29T05:37:27.512Z,994.97
2019-01-29T05:38:27.557Z,994.92
2019-01-29T05:39:27.490Z,994.92
2019-01-29T05:40:27.489Z,994.95
2019-01-29T05:41:27.473Z,995.02
2019-01-29T05:42:27.470Z,995.02
2019-01-29T05:43:27.450Z,995.02
2019-01-29T05:44:27.465Z,995.01
2019-01-29T05:45:27.431Z,995.01
2019-01-29T05:46:27.485Z,994.98
2019-01-29T05:47:27.426Z,995.08
2019-01-29T05:48:27.418Z,995.14
2019-01-29T05:49:27.391Z,995.08
2019-01-29T05:50:27.392Z,995.13
2019-01-29T05:51:27.363Z,995.21
2019-01-29T05:52:27.350Z,995.24
2019-01-29T05:53:27.362Z,995.12
2019-01-29T05:54:27.379Z,995.20
2019-01-29T05:55:27.339Z,995.22
2019-01-29T05:56:27.303Z,995.21
2019-01-29T05:57:27.296Z,995.31
2019-01-29T05:58:27.286Z,995.31
2019-01-29T05:59:27.286Z,995.37
2019-01-29T06:00:27.314Z,995.33
2019-01-29T06:01:27.264Z,995.40
2019-01-29T06:02:27.239Z,995.39
2019-01-29T06:03:27.232Z,995.34
2019-01-29T06:04:27.225Z,995.33
2019-01-29T06:05:27.227Z,995.41
2019-01-29T06:06:27.214Z,995.46
2019-01-29T06:07:27.211Z,995.43
2019-01-29T06:08:27.184Z,995.48
2019-01-29T06:09:27.171Z,995.41
2019-01-29T06:10:27.156Z,995.46
2019-01-29T06:11:27.239Z,995.46
2019-01-29T06:12:27.142Z,995.51
2019-01-29T06:13:27.139Z,995.56
2019-01-29T06:14:27.180Z,995.52
2019-01-29T06:15:27.102Z,995.52
2019-01-29T06:16:27.089Z,995.50
2019-01-29T06:17:27.623Z,995.57
2019-01-29T06:18:27.096Z,995.59
2019-01-29T06:19:27.058Z,995.64
2019-01-29T06:20:27.053Z,995.69
2019-01-29T06:21:27.035Z,995.73
2019-01-29T06:22:27.036Z,995.71
2019-01-29T06:23:27.111Z,995.70
2019-01-29T06:24:27.073Z,995.80
2019-01-29T06:25:26.998Z,995.76
2019-01-29T06:26:26.979Z,995.81
2019-01-29T06:27:26.986Z,995.77
2019-01-29T06:28:26.965Z,995.89
2019-01-29T06:29:26.960Z,995.90
2019-01-29T06:30:26.964Z,995.92
2019-01-29T06:31:26.993Z,995.92
2019-01-29T06:32:26.921Z,995.93
2019-01-29T06:33:26.902Z,995.92
2019-01-29T06:34:26.898Z,996.05
2019-01-29T06:35:26.887Z,996.06
2019-01-29T06:36:26.869Z,996.18
2019-01-29T06:37:26.860Z,996.11
2019-01-29T06:38:26.847Z,996.14
2019-01-29T06:39:26.846Z,996.03
2019-01-29T06:40:26.830Z,996.18
2019-01-29T06:41:26.833Z,996.12
2019-01-29T06:42:26.813Z,996.13
2019-01-29T06:43:26.801Z,996.13
2019-01-29T06:44:26.803Z,996.15
2019-01-29T06:45:26.775Z,996.13
2019-01-29T06:46:26.777Z,996.16
2019-01-29T06:47:26.755Z,996.20
2019-01-29T06:48:26.772Z,996.20
2019-01-29T06:49:26.736Z,996.17
2019-01-29T06:50:26.724Z,996.30
2019-01-29T06:51:26.766Z,996.28
2019-01-29T06:52:26.717Z,996.28
2019-01-29T06:53:26.715Z,996.31
2019-01-29T06:54:33.902Z,996.39
2019-01-29T06:55:27.754Z,996.30
2019-01-29T06:56:26.734Z,996.45
2019-01-29T06:57:26.646Z,996.41
2019-01-29T06:58:26.654Z,996.47
2019-01-29T06:59:26.624Z,996.48
2019-01-29T07:00:26.609Z,996.50
2019-01-29T07:01:26.597Z,996.56
2019-01-29T07:02:26.605Z,996.58
2019-01-29T07:03:26.585Z,996.59
2019-01-29T07:04:26.599Z,996.50
2019-01-29T07:05:26.557Z,996.59
2019-01-29T07:06:26.553Z,996.56
2019-01-29T07:07:26.534Z,996.59
2019-01-29T07:08:26.523Z,996.65
2019-01-29T07:09:26.544Z,996.63
2019-01-29T07:10:26.517Z,996.62
2019-01-29T07:11:26.486Z,996.66
2019-01-29T07:12:26.508Z,996.68
2019-01-29T07:13:26.478Z,996.65
2019-01-29T07:14:26.466Z,996.67
2019-01-29T07:15:26.470Z,996.70
2019-01-29T07:16:26.462Z,996.67
2019-01-29T07:17:26.427Z,996.73
2019-01-29T07:18:26.448Z,996.71
2019-01-29T07:19:26.399Z,996.66
2019-01-29T07:20:26.397Z,996.77
2019-01-29T07:21:26.388Z,996.77
2019-01-29T07:22:26.426Z,996.76
2019-01-29T07:23:26.380Z,996.73
2019-01-29T07:24:26.348Z,996.78
2019-01-29T07:25:26.336Z,996.81
2019-01-29T07:26:26.397Z,996.87
2019-01-29T07:27:26.329Z,996.79
2019-01-29T07:28:26.309Z,996.85
2019-01-29T07:29:26.302Z,996.84
2019-01-29T07:30:26.298Z,996.90
2019-01-29T07:31:26.271Z,996.91
2019-01-29T07:32:26.295Z,996.87
2019-01-29T07:33:26.250Z,996.91
2019-01-29T07:34:26.240Z,996.89
2019-01-29T07:35:26.291Z,996.86
2019-01-29T07:36:26.330Z,996.90
2019-01-29T07:37:26.208Z,996.91
2019-01-29T07:38:26.206Z,996.93
2019-01-29T07:39:26.188Z,996.94
2019-01-29T07:40:26.176Z,996.97
2019-01-29T07:41:26.170Z,996.95
2019-01-29T07:42:26.149Z,996.95
2019-01-29T07:43:26.191Z,997.03
2019-01-29T07:44:26.159Z,996.92
2019-01-29T07:45:26.198Z,996.96
2019-01-29T07:46:26.111Z,996.89
2019-01-29T07:47:26.116Z,996.96
2019-01-29T07:48:26.088Z,996.96
2019-01-29T07:49:26.084Z,997.02
2019-01-29T07:50:26.088Z,997.01
2019-01-29T07:51:26.052Z,997.05
2019-01-29T07:52:26.038Z,997.01
2019-01-29T07:53:26.120Z,997.03
2019-01-29T07:54:33.271Z,997.00
2019-01-29T07:55:27.008Z,997.11
2019-01-29T07:56:26.006Z,997.11
2019-01-29T07:57:25.988Z,997.07
2019-01-29T07:58:25.973Z,997.10
2019-01-29T07:59:33.112Z,997.19
2019-01-29T08:00:26.956Z,997.23
2019-01-29T08:01:25.938Z,997.17
2019-01-29T08:02:25.923Z,997.17
2019-01-29T08:03:25.939Z,997.22
2019-01-29T08:04:25.920Z,997.20
2019-01-29T08:05:25.899Z,997.17
2019-01-29T08:06:25.890Z,997.15
2019-01-29T08:07:25.875Z,997.23
2019-01-29T08:08:25.858Z,997.25
2019-01-29T08:09:25.859Z,997.19
2019-01-29T08:10:25.862Z,997.21
2019-01-29T08:11:25.833Z,997.29
2019-01-29T08:12:25.854Z,997.25
2019-01-29T08:13:25.821Z,997.33
2019-01-29T08:14:25.803Z,997.32
2019-01-29T08:15:25.786Z,997.27
2019-01-29T08:16:25.782Z,997.31
2019-01-29T08:17:25.776Z,997.26
2019-01-29T08:18:25.761Z,997.31
2019-01-29T08:19:25.744Z,997.26
2019-01-29T08:20:25.726Z,997.31
2019-01-29T08:21:25.719Z,997.32
2019-01-29T08:22:25.709Z,997.33
2019-01-29T08:23:25.706Z,997.31
2019-01-29T08:24:27.715Z,997.37
2019-01-29T08:25:25.679Z,997.33
2019-01-29T08:26:25.673Z,997.39
2019-01-29T08:27:25.650Z,997.36
2019-01-29T08:28:25.648Z,997.40
2019-01-29T08:29:25.635Z,997.41
2019-01-29T08:30:25.635Z,997.41
2019-01-29T08:31:25.617Z,997.37
2019-01-29T08:32:25.592Z,997.51
2019-01-29T08:33:25.596Z,997.51
2019-01-29T08:34:25.594Z,997.47
2019-01-29T08:35:25.562Z,997.52
2019-01-29T08:36:25.554Z,997.53
2019-01-29T08:37:25.573Z,997.60
2019-01-29T08:38:25.537Z,997.52
2019-01-29T08:39:25.536Z,997.51
2019-01-29T08:40:25.515Z,997.53
2019-01-29T08:41:25.539Z,997.63
2019-01-29T08:42:25.491Z,997.65
2019-01-29T08:43:25.473Z,997.66
2019-01-29T08:44:25.487Z,997.67
2019-01-29T08:45:25.462Z,997.68
2019-01-29T08:46:25.468Z,997.72
2019-01-29T08:47:25.469Z,997.72
2019-01-29T08:48:25.513Z,997.64
2019-01-29T08:49:25.429Z,997.68
2019-01-29T08:50:25.421Z,997.67
2019-01-29T08:51:25.398Z,997.68
2019-01-29T08:52:25.425Z,997.69
2019-01-29T08:53:25.395Z,997.71
2019-01-29T08:54:25.397Z,997.76
2019-01-29T08:55:25.345Z,997.78
2019-01-29T08:56:25.342Z,997.73
2019-01-29T08:57:25.351Z,997.69
2019-01-29T08:58:27.194Z,997.68
2019-01-29T08:59:25.376Z,997.74
2019-01-29T09:00:25.353Z,997.80
2019-01-29T09:01:25.301Z,997.77
2019-01-29T09:02:25.288Z,997.71
2019-01-29T09:03:25.342Z,997.73
2019-01-29T09:04:25.298Z,997.81
2019-01-29T09:05:25.258Z,997.84
2019-01-29T09:06:25.289Z,997.83
2019-01-29T09:07:25.247Z,997.76
2019-01-29T09:08:25.251Z,997.79
2019-01-29T09:09:25.213Z,997.70
2019-01-29T09:10:25.189Z,997.78
2019-01-29T09:11:25.232Z,997.84
2019-01-29T09:12:25.158Z,997.73
2019-01-29T09:13:25.155Z,997.85
2019-01-29T09:14:25.140Z,997.86
2019-01-29T09:15:25.154Z,997.74
2019-01-29T09:16:25.115Z,997.80
2019-01-29T09:17:25.128Z,997.80
2019-01-29T09:18:25.105Z,997.80
2019-01-29T09:19:25.093Z,997.89
2019-01-29T09:20:25.080Z,997.84
2019-01-29T09:21:25.069Z,997.84
2019-01-29T09:22:25.073Z,997.87
2019-01-29T09:23:25.119Z,997.85
2019-01-29T09:24:25.032Z,997.80
2019-01-29T09:25:25.038Z,997.88
2019-01-29T09:26:25.025Z,997.88
2019-01-29T09:27:25.043Z,997.89
2019-01-29T09:28:24.988Z,997.95
2019-01-29T09:29:24.974Z,997.89
2019-01-29T09:30:24.987Z,997.97
2019-01-29T09:31:24.976Z,997.91
2019-01-29T09:32:24.961Z,997.98
2019-01-29T09:33:24.936Z,997.98
2019-01-29T09:34:24.916Z,997.97
2019-01-29T09:35:24.925Z,998.05
2019-01-29T09:36:24.935Z,998.03
2019-01-29T09:37:24.926Z,998.03
2019-01-29T09:38:24.878Z,998.05
2019-01-29T09:39:24.868Z,998.00
2019-01-29T09:40:24.854Z,998.01
2019-01-29T09:41:24.864Z,998.05
2019-01-29T09:42:25.204Z,998.04
2019-01-29T09:43:24.829Z,998.02
2019-01-29T09:44:24.814Z,998.07
2019-01-29T09:45:24.795Z,998.03
2019-01-29T09:46:24.795Z,998.05
2019-01-29T09:47:24.780Z,998.10
2019-01-29T09:48:24.774Z,998.11
2019-01-29T09:49:24.774Z,998.12
2019-01-29T09:50:24.746Z,998.09
2019-01-29T09:51:24.741Z,998.13
2019-01-29T09:52:24.755Z,998.10
2019-01-29T09:53:24.712Z,998.13
2019-01-29T09:54:24.713Z,998.16
2019-01-29T09:55:29.503Z,998.04
2019-01-29T09:56:25.684Z,998.14
2019-01-29T09:57:24.686Z,998.13
2019-01-29T09:58:24.656Z,998.17
2019-01-29T09:59:24.652Z,998.14
2019-01-29T10:00:24.661Z,998.20
2019-01-29T10:01:24.660Z,998.18
2019-01-29T10:02:24.638Z,998.14
2019-01-29T10:03:24.605Z,998.16
2019-01-29T10:04:24.594Z,998.17
2019-01-29T10:05:24.583Z,998.17
2019-01-29T10:06:24.595Z,998.19
2019-01-29T10:07:24.614Z,998.19
2019-01-29T10:08:24.552Z,998.16
2019-01-29T10:09:24.526Z,998.15
2019-01-29T10:10:24.536Z,998.13
2019-01-29T10:11:24.525Z,998.12
2019-01-29T10:12:24.582Z,998.17
2019-01-29T10:13:24.499Z,998.19
2019-01-29T10:14:24.491Z,998.10
2019-01-29T10:15:24.478Z,998.12
2019-01-29T10:16:24.491Z,998.17
2019-01-29T10:17:24.464Z,998.13
2019-01-29T10:18:24.438Z,998.17
2019-01-29T10:19:24.433Z,998.28
2019-01-29T10:20:24.423Z,998.14
2019-01-29T10:21:24.411Z,998.10
2019-01-29T10:22:24.407Z,998.15
2019-01-29T10:23:24.413Z,998.16
2019-01-29T10:24:24.378Z,998.16
2019-01-29T10:25:24.370Z,998.17
2019-01-29T10:26:24.351Z,998.17
2019-01-29T10:27:24.347Z,998.19
2019-01-29T10:28:24.346Z,998.18
2019-01-29T10:29:24.347Z,998.16
2019-01-29T10:30:24.325Z,998.17
2019-01-29T10:31:24.435Z,998.19
2019-01-29T10:32:24.314Z,998.16
2019-01-29T10:33:24.277Z,998.11
2019-01-29T10:34:24.286Z,998.16
2019-01-29T10:35:24.285Z,998.12
2019-01-29T10:36:24.253Z,998.13
2019-01-29T10:37:24.251Z,998.13
2019-01-29T10:38:24.314Z,998.08
2019-01-29T10:39:24.216Z,998.14
2019-01-29T10:40:24.212Z,998.16
2019-01-29T10:41:24.198Z,998.14
2019-01-29T10:42:24.188Z,998.14
2019-01-29T10:43:24.174Z,998.18
2019-01-29T10:44:24.272Z,998.15
2019-01-29T10:45:24.156Z,998.16
2019-01-29T10:46:24.152Z,998.17
2019-01-29T10:47:24.135Z,998.17
2019-01-29T10:48:24.131Z,998.17
2019-01-29T10:49:24.114Z,998.18
2019-01-29T10:50:24.111Z,998.19
2019-01-29T10:51:24.097Z,998.14
2019-01-29T10:52:24.094Z,998.15
2019-01-29T10:53:24.070Z,998.15
2019-01-29T10:54:24.156Z,998.13
2019-01-29T10:55:24.062Z,998.16
2019-01-29T10:56:24.029Z,998.14
2019-01-29T10:57:24.034Z,998.16
2019-01-29T10:58:24.009Z,998.13
2019-01-29T10:59:24.001Z,998.12
2019-01-29T11:00:24.010Z,998.17
2019-01-29T11:01:23.986Z,998.14
2019-01-29T11:02:23.972Z,998.12
2019-01-29T11:03:23.962Z,998.10
2019-01-29T11:04:23.972Z,998.10
2019-01-29T11:05:23.937Z,998.15
2019-01-29T11:06:23.924Z,998.16
2019-01-29T11:07:23.926Z,998.18
2019-01-29T11:08:24.042Z,998.17
2019-01-29T11:09:25.551Z,998.14
2019-01-29T11:10:23.913Z,998.20
2019-01-29T11:11:23.865Z,998.18
2019-01-29T11:12:23.862Z,998.19
2019-01-29T11:13:23.845Z,998.11
2019-01-29T11:14:23.838Z,998.10
2019-01-29T11:15:23.837Z,998.12
2019-01-29T11:16:23.814Z,998.16
2019-01-29T11:17:23.800Z,998.17
2019-01-29T11:18:23.795Z,998.16
2019-01-29T11:19:23.785Z,998.13
2019-01-29T11:20:23.796Z,998.17
2019-01-29T11:21:23.767Z,998.19
2019-01-29T11:22:23.741Z,998.25
2019-01-29T11:23:23.734Z,998.18
2019-01-29T11:24:23.719Z,998.19
2019-01-29T11:25:23.720Z,998.20
2019-01-29T11:26:23.713Z,998.16
2019-01-29T11:27:23.688Z,998.20
2019-01-29T11:28:23.686Z,998.19
2019-01-29T11:29:23.668Z,998.21
2019-01-29T11:30:23.670Z,998.14
2019-01-29T11:31:23.657Z,998.18
2019-01-29T11:32:23.648Z,998.14
2019-01-29T11:33:23.641Z,998.16
2019-01-29T11:34:23.619Z,998.18
2019-01-29T11:35:23.607Z,998.16
2019-01-29T11:36:23.597Z,998.15
2019-01-29T11:37:23.585Z,998.14
2019-01-29T11:38:23.564Z,998.16
2019-01-29T11:39:23.557Z,998.22
2019-01-29T11:40:23.541Z,998.16
2019-01-29T11:41:23.531Z,998.22
2019-01-29T11:42:23.545Z,998.20
2019-01-29T11:43:23.550Z,998.22
2019-01-29T11:44:23.501Z,998.18
2019-01-29T11:45:23.493Z,998.21
2019-01-29T11:46:23.486Z,998.22
2019-01-29T11:47:23.469Z,998.20
2019-01-29T11:48:23.475Z,998.25
2019-01-29T11:49:23.477Z,998.27
2019-01-29T11:50:23.468Z,998.22
2019-01-29T11:51:23.436Z,998.18
2019-01-29T11:52:23.427Z,998.22
2019-01-29T11:53:23.419Z,998.23
2019-01-29T11:54:23.408Z,998.20
2019-01-29T11:55:23.380Z,998.27
2019-01-29T11:56:23.378Z,998.26
2019-01-29T11:57:23.363Z,998.29
2019-01-29T11:58:23.365Z,998.23
2019-01-29T11:59:23.341Z,998.28
2019-01-29T12:00:23.344Z,998.26
2019-01-29T12:01:23.324Z,998.27
2019-01-29T12:02:28.268Z,998.32
2019-01-29T12:03:24.291Z,998.30
2019-01-29T12:04:24.248Z,998.28
2019-01-29T12:05:23.293Z,998.27
2019-01-29T12:06:23.282Z,998.30
2019-01-29T12:07:23.264Z,998.30
2019-01-29T12:08:23.270Z,998.30
2019-01-29T12:09:23.261Z,998.23
2019-01-29T12:10:23.236Z,998.23
2019-01-29T12:11:23.215Z,998.26
2019-01-29T12:12:23.196Z,998.26
2019-01-29T12:13:23.196Z,998.23
2019-01-29T12:14:23.175Z,998.20
2019-01-29T12:15:23.163Z,998.21
2019-01-29T12:16:23.165Z,998.27
2019-01-29T12:17:23.175Z,998.32
2019-01-29T12:18:23.160Z,998.35
2019-01-29T12:19:23.121Z,998.32
2019-01-29T12:20:23.117Z,998.36
2019-01-29T12:21:23.100Z,998.35
2019-01-29T12:22:23.102Z,998.38
2019-01-29T12:23:23.086Z,998.37
2019-01-29T12:24:23.068Z,998.35
2019-01-29T12:25:23.062Z,998.35
2019-01-29T12:26:23.060Z,998.34
2019-01-29T12:27:23.037Z,998.45
2019-01-29T12:28:23.046Z,998.37
2019-01-29T12:29:23.030Z,998.40
2019-01-29T12:30:23.058Z,998.39
2019-01-29T12:31:22.989Z,998.28